createdAt,value
2022-09-16T00:01:51.854Z,5.17
2022-09-16T00:04:18.407Z,5.30
2022-09-16T00:06:44.914Z,5.10
2022-09-16T00:09:11.406Z,4.85
2022-09-16T00:11:37.789Z,5.20
2022-09-16T00:14:04.481Z,4.57
2022-09-16T00:16:31.062Z,5.03
2022-09-16T00:18:59.777Z,4.25
2022-09-16T00:21:27.950Z,4.80
2022-09-16T00:23:55.815Z,4.50
2022-09-16T00:26:23.010Z,4.40
2022-09-16T00:28:50.701Z,4.80
2022-09-16T00:31:17.898Z,4.80
2022-09-16T00:33:44.441Z,4.78
2022-09-16T00:36:16.869Z,4.73
2022-09-16T00:38:44.518Z,5.23
2022-09-16T00:41:20.195Z,5.03
2022-09-16T00:43:52.956Z,5.77
2022-09-16T00:46:26.024Z,5.93
2022-09-16T00:48:52.950Z,5.37
2022-09-16T00:51:21.010Z,5.83
2022-09-16T00:53:56.837Z,5.23
2022-09-16T00:56:27.417Z,4.43
2022-09-16T00:59:18.409Z,5.17
2022-09-16T01:01:46.787Z,5.03
2022-09-16T01:04:35.109Z,5.20
2022-09-16T01:07:01.792Z,6.43
2022-09-16T01:09:30.178Z,5.80
2022-09-16T01:11:56.856Z,6.70
2022-09-16T01:14:44.782Z,7.37
2022-09-16T01:17:26.088Z,4.70
2022-09-16T01:20:26.685Z,4.20
2022-09-16T01:23:12.419Z,4.50
2022-09-16T01:26:06.802Z,4.57
2022-09-16T01:29:08.039Z,4.80
2022-09-16T01:32:09.139Z,4.23
2022-09-16T01:34:45.606Z,4.43
2022-09-16T01:37:33.942Z,5.00
2022-09-16T01:40:14.397Z,4.80
2022-09-16T01:43:11.546Z,4.97
2022-09-16T01:45:45.080Z,4.67
2022-09-16T01:48:17.389Z,5.27
2022-09-16T01:51:06.513Z,5.30
2022-09-16T01:53:54.253Z,5.00
2022-09-16T01:56:29.094Z,5.67
2022-09-16T02:03:15.695Z,4.40
2022-09-16T02:09:33.285Z,4.33
2022-09-16T02:12:05.590Z,4.40
2022-09-16T02:14:35.889Z,4.67
2022-09-16T02:17:07.363Z,4.97
2022-09-16T02:19:41.671Z,5.00
2022-09-16T02:22:20.999Z,5.57
2022-09-16T02:24:48.129Z,5.13
2022-09-16T02:27:18.258Z,5.53
2022-09-16T02:29:50.371Z,4.90
2022-09-16T02:32:20.212Z,4.80
2022-09-16T02:34:51.296Z,4.77
2022-09-16T02:37:29.529Z,6.03
2022-09-16T02:40:02.187Z,4.77
2022-09-16T02:42:29.878Z,5.05
2022-09-16T02:44:57.890Z,4.80
2022-09-16T02:47:58.558Z,5.47
2022-09-16T02:50:34.091Z,5.03
2022-09-16T02:53:05.065Z,4.90
2022-09-16T02:55:31.392Z,4.70
2022-09-16T02:57:57.976Z,4.70
2022-09-16T03:00:25.731Z,4.77
2022-09-16T03:02:54.563Z,4.43
2022-09-16T03:05:26.697Z,4.20
2022-09-16T03:07:53.109Z,4.47
2022-09-16T03:10:22.299Z,4.50
2022-09-16T03:13:16.830Z,4.53
2022-09-16T03:15:46.824Z,4.13
2022-09-16T03:18:27.972Z,4.70
2022-09-16T03:21:16.567Z,4.40
2022-09-16T03:24:00.985Z,4.37
2022-09-16T03:26:55.051Z,4.57
2022-09-16T03:29:36.495Z,4.90
2022-09-16T03:32:23.784Z,4.63
2022-09-16T03:34:59.824Z,4.53
2022-09-16T03:37:28.986Z,4.40
2022-09-16T03:40:00.152Z,4.87
2022-09-16T03:42:26.681Z,4.67
2022-09-16T03:44:53.492Z,4.37
2022-09-16T03:47:19.938Z,4.17
2022-09-16T03:49:46.300Z,4.50
2022-09-16T03:52:12.721Z,4.40
2022-09-16T03:54:39.240Z,3.87
2022-09-16T03:57:06.370Z,4.50
2022-09-16T03:59:33.918Z,4.33
2022-09-16T04:02:00.995Z,4.40
2022-09-16T04:04:27.653Z,4.30
2022-09-16T04:06:54.104Z,4.40
2022-09-16T04:09:20.700Z,4.37
2022-09-16T04:11:47.173Z,5.27
2022-09-16T04:14:13.565Z,4.50
2022-09-16T04:16:44.821Z,5.03
2022-09-16T04:19:13.432Z,4.80
2022-09-16T04:21:40.489Z,4.93
2022-09-16T04:24:12.978Z,5.07
2022-09-16T04:26:40.788Z,5.10
2022-09-16T04:29:07.330Z,5.50
2022-09-16T04:31:33.954Z,4.63
2022-09-16T04:34:04.850Z,5.23
2022-09-16T04:36:32.765Z,4.47
2022-09-16T04:38:59.232Z,4.70
2022-09-16T04:41:26.918Z,4.77
2022-09-16T04:43:56.398Z,4.90
2022-09-16T04:46:27.136Z,4.77
2022-09-16T04:48:54.821Z,4.60
2022-09-16T04:51:22.529Z,4.30
2022-09-16T04:53:49.609Z,4.90
2022-09-16T04:56:19.551Z,4.60
2022-09-16T04:58:54.036Z,5.13
2022-09-16T05:01:23.549Z,4.50
2022-09-16T05:03:53.761Z,4.93
2022-09-16T05:06:27.428Z,4.87
2022-09-16T05:08:55.562Z,6.17
2022-09-16T05:11:27.599Z,4.47
2022-09-16T05:13:54.986Z,5.10
2022-09-16T05:16:23.254Z,4.73
2022-09-16T05:18:53.515Z,5.00
2022-09-16T05:21:21.950Z,5.23
2022-09-16T05:23:48.789Z,6.10
2022-09-16T05:26:26.572Z,4.63
2022-09-16T05:28:53.710Z,4.57
2022-09-16T05:31:26.546Z,5.30
2022-09-16T05:34:01.070Z,4.90
2022-09-16T05:36:30.080Z,4.83
2022-09-16T05:39:20.910Z,4.77
2022-09-16T05:41:43.254Z,5.00
2022-09-16T05:44:09.856Z,4.77
2022-09-16T05:46:37.096Z,4.30
2022-09-16T05:49:04.301Z,4.63
2022-09-16T05:51:31.213Z,4.20
2022-09-16T05:53:59.218Z,4.53
2022-09-16T05:56:29.054Z,4.57
2022-09-16T05:58:57.975Z,5.40
2022-09-16T06:01:27.169Z,7.03
2022-09-16T06:03:57.380Z,5.13
2022-09-16T06:06:26.559Z,4.70
2022-09-16T06:08:56.510Z,4.60
2022-09-16T06:11:24.309Z,4.73
2022-09-16T06:13:55.896Z,4.60
2022-09-16T06:16:25.672Z,4.30
2022-09-16T06:18:53.270Z,4.60
2022-09-16T06:21:20.154Z,4.67
2022-09-16T06:23:46.643Z,4.90
2022-09-16T06:26:15.735Z,4.97
2022-09-16T06:28:43.040Z,4.80
2022-09-16T06:31:19.838Z,5.10
2022-09-16T06:33:46.852Z,5.40
2022-09-16T06:36:16.315Z,5.97
2022-09-16T06:38:43.650Z,5.00
2022-09-16T06:41:12.078Z,4.77
2022-09-16T06:43:39.201Z,4.87
2022-09-16T06:46:11.144Z,3.90
2022-09-16T06:48:37.669Z,3.77
2022-09-16T06:51:07.010Z,3.90
2022-09-16T07:26:48.250Z,2.93
2022-09-16T07:29:18.721Z,2.77
2022-09-16T07:31:45.166Z,3.00
2022-09-16T07:34:13.623Z,3.10
2022-09-16T07:36:46.059Z,2.63
2022-09-16T07:43:19.705Z,1.90
2022-09-16T07:45:46.696Z,2.00
2022-09-16T07:48:38.794Z,2.33
2022-09-16T07:51:10.656Z,1.88
2022-09-16T07:53:37.512Z,1.90
2022-09-16T07:56:05.739Z,1.90
2022-09-16T07:58:32.516Z,1.60
2022-09-16T08:01:03.941Z,1.50
2022-09-16T08:03:32.303Z,2.38
2022-09-16T08:06:10.893Z,1.65
2022-09-16T08:33:54.285Z,1.40
2022-09-16T08:40:45.451Z,1.20
2022-09-16T09:19:40.169Z,0.93
2022-09-16T09:26:52.455Z,1.00
2022-09-16T09:30:08.932Z,1.00
2022-09-16T09:37:04.732Z,0.90
2022-09-16T09:39:44.887Z,1.02
2022-09-16T09:42:26.676Z,0.73
2022-09-16T09:45:19.233Z,1.15
2022-09-16T09:47:51.032Z,1.02
2022-09-16T09:50:30.963Z,0.85
2022-09-16T09:53:06.819Z,1.10
2022-09-16T09:55:35.537Z,1.15
2022-09-16T09:58:10.954Z,0.98
2022-09-16T10:00:37.482Z,1.00
2022-09-16T10:03:13.188Z,1.08
2022-09-16T10:05:41.075Z,0.93
2022-09-16T10:08:43.753Z,1.45
2022-09-16T10:11:22.559Z,0.75
2022-09-16T10:13:54.577Z,0.90
2022-09-16T10:16:26.937Z,0.90
2022-09-16T10:19:17.002Z,0.93
2022-09-16T10:21:53.317Z,4.03
2022-09-16T10:24:30.282Z,3.30
2022-09-16T10:26:58.255Z,1.83
2022-09-16T10:29:24.732Z,1.63
2022-09-16T10:31:51.744Z,0.90
2022-09-16T10:34:34.614Z,1.80
2022-09-16T10:37:14.587Z,1.60
2022-09-16T10:39:46.109Z,1.35
2022-09-16T10:42:21.720Z,1.20
2022-09-16T10:49:09.211Z,1.35
2022-09-16T10:51:35.764Z,1.10
2022-09-16T10:54:05.967Z,1.50
2022-09-16T10:56:34.809Z,1.00
2022-09-16T10:59:09.343Z,1.50
2022-09-16T11:01:46.685Z,1.10
2022-09-16T11:04:31.631Z,1.17
2022-09-16T11:07:16.366Z,0.80
2022-09-16T11:09:51.352Z,1.27
2022-09-16T11:12:45.518Z,1.00
2022-09-16T11:15:11.825Z,1.10
2022-09-16T11:17:56.560Z,1.20
2022-09-16T11:20:41.869Z,1.00
2022-09-16T11:23:17.102Z,1.13
2022-09-16T11:26:20.783Z,1.30
2022-09-16T11:28:53.321Z,1.23
2022-09-16T11:31:35.988Z,1.05
2022-09-16T11:34:08.272Z,1.00
2022-09-16T11:36:40.193Z,1.00
2022-09-16T11:39:21.812Z,1.10
2022-09-16T11:42:10.196Z,1.20
2022-09-16T11:44:46.834Z,0.68
2022-09-16T11:47:28.520Z,1.00
2022-09-16T11:50:18.253Z,1.15
2022-09-16T11:53:05.410Z,1.20
2022-09-16T11:56:01.407Z,0.70
2022-09-16T11:58:37.962Z,0.98
2022-09-16T12:01:19.443Z,0.65
2022-09-16T12:03:55.589Z,0.80
2022-09-16T12:06:24.858Z,0.50
2022-09-16T12:09:03.115Z,0.85
2022-09-16T12:11:37.185Z,0.80
2022-09-16T12:14:15.077Z,0.80
2022-09-16T12:17:00.046Z,0.88
2022-09-16T12:19:35.065Z,0.80
2022-09-16T12:22:08.058Z,0.90
2022-09-16T12:24:44.740Z,1.00
2022-09-16T12:27:19.442Z,0.82
2022-09-16T12:30:18.393Z,0.85
2022-09-16T12:32:44.870Z,0.98
2022-09-16T12:35:16.281Z,0.93
2022-09-16T12:37:50.794Z,0.50
2022-09-16T12:41:00.453Z,0.60
2022-09-16T12:44:02.265Z,0.85
2022-09-16T12:46:53.038Z,0.73
2022-09-16T12:49:40.797Z,0.70
2022-09-16T12:52:49.030Z,0.60
2022-09-16T12:55:29.933Z,0.90
2022-09-16T12:58:34.602Z,0.73
2022-09-16T13:01:24.808Z,0.50
2022-09-16T13:04:03.028Z,0.80
2022-09-16T13:06:36.258Z,0.90
2022-09-16T13:09:22.317Z,0.60
2022-09-16T13:12:35.319Z,0.50
2022-09-16T13:14:50.789Z,0.55
2022-09-16T13:17:28.249Z,0.75
2022-09-16T13:20:00.849Z,0.82
2022-09-16T13:22:38.020Z,0.60
2022-09-16T13:25:25.000Z,0.80
2022-09-16T13:28:04.720Z,0.60
2022-09-16T13:30:37.947Z,0.50
2022-09-16T13:33:13.550Z,0.60
2022-09-16T13:35:42.482Z,0.57
2022-09-16T13:38:23.613Z,0.50
2022-09-16T13:41:01.423Z,0.60
2022-09-16T13:43:35.086Z,0.60
2022-09-16T13:46:07.044Z,0.50
2022-09-16T13:49:02.562Z,0.52
2022-09-16T13:51:33.990Z,0.43
2022-09-16T13:54:04.317Z,0.50
2022-09-16T13:56:48.424Z,0.65
2022-09-16T13:59:37.727Z,0.50
2022-09-16T14:02:21.529Z,0.63
2022-09-16T14:05:05.947Z,0.43
2022-09-16T14:07:43.920Z,0.50
2022-09-16T14:10:23.417Z,0.47
2022-09-16T14:13:10.909Z,0.43
2022-09-16T14:15:42.233Z,0.52
2022-09-16T14:18:15.100Z,0.50
2022-09-16T14:21:00.722Z,0.50
2022-09-16T14:23:28.619Z,0.50
2022-09-16T14:25:55.708Z,0.77
2022-09-16T14:28:23.348Z,0.55
2022-09-16T14:30:58.345Z,0.38
2022-09-16T14:33:32.799Z,0.50
2022-09-16T14:36:01.068Z,0.30
2022-09-16T14:38:45.628Z,0.38
2022-09-16T14:41:19.543Z,0.47
2022-09-16T14:43:46.262Z,0.40
2022-09-16T14:46:12.766Z,0.70
2022-09-16T14:48:42.046Z,0.57
2022-09-16T14:51:21.158Z,0.50
2022-09-16T14:54:11.846Z,0.60
2022-09-16T14:56:38.980Z,0.68
2022-09-16T14:59:06.149Z,0.60
2022-09-16T15:01:32.516Z,0.65
2022-09-16T15:03:58.919Z,0.52
2022-09-16T15:06:34.628Z,0.50
2022-09-16T15:09:07.658Z,0.60
2022-09-16T15:11:48.232Z,0.65
2022-09-16T15:14:16.895Z,0.68
2022-09-16T15:16:54.541Z,0.50
2022-09-16T15:19:25.447Z,0.50
2022-09-16T15:21:52.617Z,0.50
2022-09-16T15:24:28.963Z,0.35
2022-09-16T15:26:57.222Z,0.60
2022-09-16T15:29:23.553Z,0.40
2022-09-16T15:31:50.919Z,0.40
2022-09-16T15:34:18.588Z,0.50
2022-09-16T15:36:50.054Z,0.43
2022-09-16T15:39:29.601Z,0.40
2022-09-16T15:42:16.577Z,0.90
2022-09-16T15:44:48.035Z,0.60
2022-09-16T15:47:24.502Z,0.60
2022-09-16T15:49:55.565Z,0.70
2022-09-16T15:52:22.193Z,0.60
2022-09-16T15:54:52.628Z,0.32
2022-09-16T15:57:33.729Z,0.25
2022-09-16T16:00:13.223Z,0.20
2022-09-16T16:02:54.290Z,0.35
2022-09-16T16:05:28.131Z,0.50
2022-09-16T16:07:59.981Z,0.52
2022-09-16T16:10:36.114Z,0.57
2022-09-16T16:13:04.591Z,0.30
2022-09-16T16:15:35.446Z,0.30
2022-09-16T16:18:05.794Z,0.20
2022-09-16T16:20:34.542Z,0.23
2022-09-16T16:23:02.214Z,0.30
2022-09-16T16:25:29.477Z,0.30
2022-09-16T16:27:55.873Z,0.40
2022-09-16T16:30:22.344Z,0.33
2022-09-16T16:32:48.969Z,0.30
2022-09-16T16:35:15.399Z,0.60
2022-09-16T16:37:46.364Z,0.40
2022-09-16T16:40:14.056Z,0.50
2022-09-16T16:42:42.965Z,1.10
2022-09-16T16:45:11.011Z,0.60
2022-09-16T16:47:37.389Z,0.50
2022-09-16T16:50:04.148Z,0.47
2022-09-16T16:52:30.580Z,0.40
2022-09-16T16:54:57.200Z,0.50
2022-09-16T16:57:24.263Z,0.40
2022-09-16T16:59:51.854Z,0.30
2022-09-16T17:02:18.348Z,0.23
2022-09-16T17:04:44.711Z,0.30
2022-09-16T17:07:27.947Z,0.30
2022-09-16T17:09:57.171Z,0.30
2022-09-16T17:12:23.602Z,0.30
2022-09-16T17:14:50.020Z,0.32
2022-09-16T17:17:17.524Z,0.22
2022-09-16T17:19:43.933Z,0.40
2022-09-16T17:22:10.896Z,0.30
2022-09-16T17:24:37.269Z,0.30
2022-09-16T17:27:04.365Z,0.50
2022-09-16T17:29:30.793Z,0.33
2022-09-16T17:31:57.410Z,0.50
2022-09-16T17:34:26.124Z,0.70
2022-09-16T17:36:52.609Z,0.50
2022-09-16T17:39:21.329Z,0.30
2022-09-16T17:41:49.409Z,0.40
2022-09-16T17:44:17.379Z,0.40
2022-09-16T17:46:45.071Z,0.60
2022-09-16T17:49:37.544Z,0.40
2022-09-16T17:52:03.957Z,0.50
2022-09-16T17:54:30.384Z,0.50
2022-09-16T17:56:56.760Z,0.30
2022-09-16T17:59:25.116Z,0.60
2022-09-16T18:01:51.523Z,0.40
2022-09-16T18:04:17.995Z,2.00
2022-09-16T18:06:46.065Z,7.70
2022-09-16T18:09:13.612Z,7.37
2022-09-16T18:11:40.348Z,8.23
2022-09-16T18:14:10.021Z,4.43
2022-09-16T18:16:36.426Z,2.30
2022-09-16T18:19:04.369Z,2.60
2022-09-16T18:21:31.700Z,2.57
2022-09-16T18:24:02.018Z,2.50
2022-09-16T18:26:28.961Z,1.97
2022-09-16T18:29:12.656Z,1.80
2022-09-16T18:31:44.900Z,1.03
2022-09-16T18:34:12.781Z,1.10
2022-09-16T18:36:39.596Z,0.90
2022-09-16T18:39:08.190Z,0.70
2022-09-16T18:41:37.053Z,0.60
2022-09-16T18:44:07.367Z,1.03
2022-09-16T18:46:35.951Z,1.87
2022-09-16T18:49:02.824Z,0.73
2022-09-16T18:51:32.883Z,0.50
2022-09-16T18:54:02.320Z,0.43
2022-09-16T18:56:32.309Z,0.60
2022-09-16T18:59:22.646Z,0.57
2022-09-16T19:01:55.540Z,0.40
2022-09-16T19:04:25.120Z,0.40
2022-09-16T19:06:53.621Z,0.90
2022-09-16T19:09:22.556Z,0.50
2022-09-16T19:11:50.426Z,0.80
2022-09-16T19:14:20.905Z,0.83
2022-09-16T19:16:47.366Z,0.83
2022-09-16T19:19:14.957Z,0.63
2022-09-16T19:21:42.501Z,0.50
2022-09-16T19:24:14.942Z,0.33
2022-09-16T19:26:42.788Z,0.40
2022-09-16T19:29:10.413Z,0.40
2022-09-16T19:31:39.689Z,0.30
2022-09-16T19:34:06.976Z,0.43
2022-09-16T19:36:34.690Z,0.50
2022-09-16T19:39:02.478Z,0.50
2022-09-16T19:41:32.124Z,0.87
2022-09-16T19:44:01.999Z,2.20
2022-09-16T19:46:31.806Z,1.37
2022-09-16T19:48:58.783Z,2.47
2022-09-16T19:51:25.994Z,1.40
2022-09-16T19:53:53.363Z,0.50
2022-09-16T19:56:26.046Z,0.50
2022-09-16T19:58:53.576Z,0.80
2022-09-16T20:01:23.086Z,0.40
2022-09-16T20:03:49.681Z,0.40
2022-09-16T20:06:32.973Z,0.40
2022-09-16T20:09:01.174Z,0.47
2022-09-16T20:11:31.502Z,0.47
2022-09-16T20:14:05.269Z,0.80
2022-09-16T20:16:37.613Z,1.00
2022-09-16T20:19:05.877Z,1.50
2022-09-16T20:21:35.587Z,3.03
2022-09-16T20:24:05.655Z,4.37
2022-09-16T20:26:32.571Z,5.03
2022-09-16T20:28:59.812Z,7.63
2022-09-16T20:31:29.340Z,6.13
2022-09-16T20:33:55.910Z,8.60
2022-09-16T20:36:24.130Z,5.70
2022-09-16T20:38:51.355Z,3.37
2022-09-16T20:41:23.386Z,3.07
2022-09-16T20:43:50.953Z,2.00
2022-09-16T20:46:20.135Z,1.77
2022-09-16T20:48:47.498Z,5.77
2022-09-16T20:51:16.857Z,4.47
2022-09-16T20:53:44.998Z,4.00
2022-09-16T20:56:15.667Z,2.77
2022-09-16T20:58:44.364Z,2.27
2022-09-16T21:01:20.498Z,2.20
2022-09-16T21:04:00.820Z,1.47
2022-09-16T21:06:29.089Z,1.73
2022-09-16T21:08:59.522Z,1.30
2022-09-16T21:11:28.103Z,1.00
2022-09-16T21:14:03.010Z,1.37
2022-09-16T21:16:31.802Z,1.20
2022-09-16T21:19:00.687Z,0.80
2022-09-16T21:21:28.549Z,0.80
2022-09-16T21:23:57.829Z,1.20
2022-09-16T21:26:30.900Z,1.23
2022-09-16T21:28:59.806Z,1.27
2022-09-16T21:31:28.587Z,1.50
2022-09-16T21:33:56.635Z,5.53
2022-09-16T21:36:25.058Z,13.77
2022-09-16T21:38:51.934Z,5.43
2022-09-16T21:41:21.236Z,2.53
2022-09-16T21:43:51.212Z,1.83
2022-09-16T21:46:26.857Z,1.40
2022-09-16T21:48:58.123Z,1.07
2022-09-16T21:51:24.661Z,1.30
2022-09-16T21:53:51.054Z,1.10
2022-09-16T21:56:23.089Z,0.93
2022-09-16T21:58:53.154Z,1.20
2022-09-16T22:01:22.812Z,1.10
2022-09-16T22:04:10.437Z,1.10
2022-09-16T22:06:36.845Z,1.13
2022-09-16T22:09:07.679Z,1.30
2022-09-16T22:11:36.988Z,1.30
2022-09-16T22:14:04.409Z,1.27
2022-09-16T22:16:34.214Z,1.00
2022-09-16T22:19:04.177Z,0.90
2022-09-16T22:21:32.837Z,1.00
2022-09-16T22:24:00.766Z,1.03
2022-09-16T22:26:28.442Z,1.10
2022-09-16T22:28:55.211Z,0.80
2022-09-16T22:31:24.608Z,1.00
2022-09-16T22:33:53.195Z,1.37
2022-09-16T22:36:23.161Z,1.30
2022-09-16T22:38:52.173Z,1.43
2022-09-16T22:41:19.454Z,1.20
2022-09-16T22:43:48.170Z,1.10
2022-09-16T22:46:20.523Z,1.10
2022-09-16T22:48:47.659Z,1.07
2022-09-16T22:51:16.481Z,1.60
2022-09-16T22:53:43.851Z,1.40
2022-09-16T22:56:13.686Z,1.20
2022-09-16T22:58:41.695Z,1.50
2022-09-16T23:01:12.413Z,1.30
2022-09-16T23:03:40.227Z,1.30
2022-09-16T23:06:09.976Z,1.70
2022-09-16T23:08:38.189Z,1.33
2022-09-16T23:11:07.177Z,1.30
2022-09-16T23:13:35.050Z,1.10
2022-09-16T23:16:03.857Z,1.50
2022-09-16T23:18:31.461Z,1.17
2022-09-16T23:21:04.008Z,1.90
2022-09-16T23:23:32.345Z,1.40
2022-09-16T23:26:05.895Z,1.30
2022-09-16T23:28:33.232Z,1.37
2022-09-16T23:31:11.382Z,1.40
2022-09-16T23:33:39.296Z,1.90
2022-09-16T23:36:07.225Z,1.60
2022-09-16T23:38:35.770Z,1.60
2022-09-16T23:41:13.253Z,1.50
2022-09-16T23:43:41.516Z,1.77
2022-09-16T23:46:09.482Z,1.73
2022-09-16T23:48:36.257Z,1.70
2022-09-16T23:51:03.556Z,1.70
2022-09-16T23:53:29.897Z,1.63
2022-09-16T23:55:56.357Z,1.50
2022-09-16T23:58:23.295Z,1.53
